Time;durP1;ratioP1;P1;durP2;ratioP2;P2;SDS_P1;SDS_P2;PMS_P1;PMS_P2;Temp;Humidity;BMP_temperature;BMP_pressure;BME280_temperature;BME280_humidity;BME280_pressure;Samples;Min_cycle;Max_cycle;Signal;HPM_P1;HPM_P2
2022/10/02 00:02:12;;;;;;;4.88;3.90;;;;;;;14.83;84.34;98531.00;5023154;28;20262;-68
2022/10/02 00:04:56;;;;;;;4.47;3.45;;;;;;;14.82;83.55;98535.38;5024494;28;20025;-68
2022/10/02 00:07:30;;;;;;;4.00;2.88;;;;;;;14.65;83.64;98525.06;5024335;28;20310;-67
2022/10/02 00:10:00;;;;;;;4.18;3.42;;;;;;;14.77;84.07;98542.63;5024348;28;20026;-67
2022/10/02 00:12:29;;;;;;;5.03;3.70;;;;;;;14.71;85.56;98544.72;5004842;28;20377;-68
2022/10/02 00:15:06;;;;;;;3.60;3.30;;;;;;;14.56;83.85;98529.00;5031302;28;20056;-67
2022/10/02 00:17:38;;;;;;;5.97;3.90;;;;;;;14.56;85.05;98534.22;5024174;28;20025;-67
2022/10/02 00:20:12;;;;;;;5.35;3.78;;;;;;;14.61;84.88;98537.41;5024200;28;20040;-67
2022/10/02 00:22:46;;;;;;;5.32;4.00;;;;;;;14.60;84.60;98546.16;5023830;28;20137;-68
2022/10/02 00:25:25;;;;;;;5.57;4.75;;;;;;;14.52;85.44;98540.53;5024118;28;20075;-67
2022/10/02 00:27:59;;;;;;;5.78;4.18;;;;;;;14.58;85.65;98547.16;5023729;28;20018;-68
2022/10/02 00:30:25;;;;;;;4.32;3.92;;;;;;;14.54;85.83;98545.69;5024164;28;20073;-68
2022/10/02 00:32:54;;;;;;;4.78;4.38;;;;;;;14.52;85.18;98550.13;5023832;28;20033;-68
2022/10/02 00:35:35;;;;;;;4.80;4.35;;;;;;;14.54;85.00;98551.72;5022845;28;20037;-68
2022/10/02 00:38:15;;;;;;;3.90;3.50;;;;;;;14.45;83.99;98547.00;5023465;28;20037;-68
2022/10/02 00:40:59;;;;;;;5.57;3.47;;;;;;;14.52;83.41;98547.50;5023876;28;20030;-68
2022/10/02 00:44:02;;;;;;;4.28;3.88;;;;;;;14.30;80.67;98543.50;5023839;28;20029;-68
2022/10/02 00:46:44;;;;;;;4.18;3.40;;;;;;;14.33;81.56;98545.94;5023570;28;20104;-68
2022/10/02 00:49:12;;;;;;;3.78;3.42;;;;;;;14.41;82.90;98548.97;5024065;28;20049;-68
2022/10/02 00:51:37;;;;;;;2.75;2.55;;;;;;;14.43;82.29;98554.91;5023696;28;20038;-68
2022/10/02 00:54:18;;;;;;;3.95;3.50;;;;;;;14.39;81.50;98549.97;5023408;28;20371;-68
2022/10/02 00:56:49;;;;;;;5.85;3.15;;;;;;;14.33;81.98;98556.34;5023423;28;20026;-69
2022/10/02 00:59:45;;;;;;;3.60;3.28;;;;;;;14.40;82.12;98557.69;5023527;28;20072;-68
2022/10/02 01:02:33;;;;;;;3.95;3.55;;;;;;;14.27;83.15;98543.69;5023009;28;20287;-69
2022/10/02 01:05:02;;;;;;;4.18;3.17;;;;;;;14.29;82.17;98550.50;5017120;28;20042;-69
2022/10/02 01:07:29;;;;;;;4.60;3.70;;;;;;;14.37;82.62;98557.88;5026736;28;20029;-68
2022/10/02 01:09:55;;;;;;;4.97;3.22;;;;;;;14.34;82.15;98560.66;5043197;28;20025;-69
2022/10/02 01:12:21;;;;;;;4.43;3.72;;;;;;;14.11;82.44;98528.91;5024647;28;20022;-69
2022/10/02 01:14:47;;;;;;;3.97;2.95;;;;;;;14.24;82.05;98543.84;5023235;28;20330;-69
2022/10/02 01:17:23;;;;;;;3.53;3.22;;;;;;;14.00;81.76;98517.41;5023356;28;20026;-68
2022/10/02 01:19:49;;;;;;;3.80;3.30;;;;;;;14.25;82.09;98546.38;5022811;28;20056;-68
2022/10/02 01:22:31;;;;;;;3.03;2.72;;;;;;;14.25;82.70;98556.78;5023161;28;20037;-68
2022/10/02 01:24:58;;;;;;;3.78;3.13;;;;;;;14.17;81.49;98547.72;5023737;28;20041;-69
2022/10/02 01:27:25;;;;;;;2.80;2.60;;;;;;;14.12;79.80;98555.75;5023258;28;20037;-69
2022/10/02 01:29:55;;;;;;;3.42;3.00;;;;;;;14.04;80.34;98540.56;5021908;28;20175;-69
2022/10/02 01:32:25;;;;;;;2.58;2.38;;;;;;;14.14;80.57;98552.16;5022924;28;20046;-68
2022/10/02 01:34:53;;;;;;;2.75;2.55;;;;;;;14.06;80.72;98559.53;5023107;28;20033;-68
2022/10/02 01:37:21;;;;;;;2.95;2.40;;;;;;;13.69;80.65;98537.25;5023317;28;20076;-68
2022/10/02 01:39:47;;;;;;;3.03;2.67;;;;;;;13.98;81.30;98562.56;5023136;28;20690;-69
2022/10/02 01:42:13;;;;;;;3.67;2.63;;;;;;;13.94;81.47;98563.66;5023065;28;20036;-69
2022/10/02 01:44:39;;;;;;;3.00;2.80;;;;;;;13.74;81.00;98556.06;5001841;28;20293;-69
2022/10/02 01:47:08;;;;;;;3.30;2.95;;;;;;;13.70;81.21;98564.97;5014048;28;20022;-68
2022/10/02 01:49:33;;;;;;;4.03;3.15;;;;;;;13.56;80.43;98565.66;5027039;28;20048;-68
2022/10/02 01:52:36;;;;;;;3.00;2.70;;;;;;;13.57;81.94;98562.16;5027084;28;20298;-68
2022/10/02 01:55:19;;;;;;;;;;;;;;;13.60;82.33;98573.22;5008066;28;20030;-68
2022/10/02 01:57:57;;;;;;;4.20;3.72;;;;;;;13.56;81.40;98563.06;5006930;28;19960;-68
2022/10/02 02:00:25;;;;;;;5.43;3.33;;;;;;;13.50;82.21;98559.03;5024731;28;20316;-68
2022/10/02 02:03:29;;;;;;;2.90;2.70;;;;;;;13.55;81.87;98570.03;5026662;28;20037;-68
2022/10/02 02:06:16;;;;;;;4.22;3.83;;;;;;;13.47;81.89;98564.38;5026654;28;20034;-68
2022/10/02 02:08:48;;;;;;;2.95;2.60;;;;;;;13.45;82.14;98567.06;5036644;28;20036;-68
2022/10/02 02:11:18;;;;;;;;;;;;;;;13.52;81.80;98569.34;5038249;28;20033;-68
2022/10/02 02:13:54;;;;;;;2.88;2.40;;;;;;;13.50;83.07;98568.59;5026562;28;19980;-68
2022/10/02 02:16:22;;;;;;;2.95;2.42;;;;;;;13.48;83.77;98571.25;5026729;28;20034;-68
2022/10/02 02:19:09;;;;;;;2.70;2.47;;;;;;;13.49;83.36;98572.94;5027688;28;20253;-67
2022/10/02 02:21:46;;;;;;;3.72;2.50;;;;;;;13.48;83.32;98576.44;5007992;28;20311;-68
2022/10/02 02:24:27;;;;;;;2.67;2.35;;;;;;;13.51;82.42;98575.47;5023668;28;20042;-67
2022/10/02 02:26:57;;;;;;;2.83;2.55;;;;;;;13.28;82.09;98557.50;5026220;28;20068;-67
2022/10/02 02:29:27;;;;;;;2.20;2.00;;;;;;;13.29;80.89;98559.16;5026314;28;20038;-68
2022/10/02 02:31:57;;;;;;;3.17;2.30;;;;;;;13.44;81.19;98578.38;5026411;28;20117;-68
2022/10/02 02:34:30;;;;;;;2.40;2.20;;;;;;;13.25;82.56;98555.06;5026152;28;20233;-69
2022/10/02 02:37:01;;;;;;;2.20;2.00;;;;;;;13.32;81.35;98573.78;5026326;28;20030;-68
2022/10/02 02:39:50;;;;;;;2.42;1.98;;;;;;;13.32;81.44;98565.13;5026084;28;20026;-68
2022/10/02 02:42:20;;;;;;;3.53;1.88;;;;;;;13.37;81.66;98577.03;5025974;28;20108;-67
2022/10/02 02:45:12;;;;;;;1.92;1.73;;;;;;;13.32;80.84;98573.78;5026203;28;20076;-68
2022/10/02 02:47:44;;;;;;;1.98;1.83;;;;;;;13.43;79.98;98575.88;5026689;28;20018;-68
2022/10/02 02:50:31;;;;;;;3.25;1.58;;;;;;;13.40;79.79;98570.81;5025770;28;20389;-69
2022/10/02 02:53:08;;;;;;;1.50;1.40;;;;;;;13.49;79.93;98577.31;5025983;28;20034;-70
2022/10/02 02:55:35;;;;;;;2.67;1.58;;;;;;;13.50;81.02;98582.44;5025639;28;20289;-67
2022/10/02 02:58:12;;;;;;;1.80;1.70;;;;;;;13.21;79.51;98556.13;5024804;28;20044;-66
2022/10/02 03:00:37;;;;;;;1.77;1.50;;;;;;;13.27;80.33;98563.59;5006386;28;20129;-69
2022/10/02 03:03:03;;;;;;;1.92;1.40;;;;;;;13.30;80.33;98579.06;5021111;28;20389;-68
2022/10/02 03:05:31;;;;;;;1.70;1.45;;;;;;;13.38;80.38;98576.13;5025396;28;20036;-69
2022/10/02 03:08:04;;;;;;;2.20;1.55;;;;;;;13.22;79.99;98581.19;5031371;28;20025;-69
2022/10/02 03:11:02;;;;;;;1.60;1.50;;;;;;;13.29;79.58;98577.34;5042585;28;20037;-69
2022/10/02 03:13:49;;;;;;;2.10;1.20;;;;;;;13.13;79.56;98582.50;5025315;28;20029;-68
2022/10/02 03:16:27;;;;;;;1.35;1.25;;;;;;;13.34;79.96;98574.53;5024032;28;20036;-69
2022/10/02 03:19:15;;;;;;;3.60;1.40;;;;;;;13.32;79.63;98571.16;5025405;28;20037;-69
2022/10/02 03:21:55;;;;;;;3.72;1.48;;;;;;;13.25;79.99;98557.66;5005723;28;20035;-69
2022/10/02 03:24:55;;;;;;;1.33;1.23;;;;;;;13.30;79.54;98578.22;5023067;28;20053;-68
2022/10/02 03:27:31;;;;;;;2.55;1.42;;;;;;;13.25;79.04;98575.00;5020240;28;20038;-68
2022/10/02 03:30:08;;;;;;;2.75;1.30;;;;;;;13.13;80.37;98558.28;5024884;28;20249;-68
2022/10/02 03:32:36;;;;;;;1.55;1.45;;;;;;;13.26;79.66;98580.13;5023788;28;20048;-68
2022/10/02 03:35:06;;;;;;;3.42;1.30;;;;;;;13.29;79.64;98590.34;5025096;28;20057;-68
2022/10/02 03:37:31;;;;;;;2.45;1.67;;;;;;;13.20;79.82;98596.03;5025038;28;20022;-69
2022/10/02 03:39:59;;;;;;;1.35;1.23;;;;;;;13.29;79.76;98597.31;5024841;28;20096;-68
2022/10/02 03:42:29;;;;;;;2.35;1.42;;;;;;;13.22;79.87;98591.59;5025022;28;20093;-69
2022/10/02 03:44:55;;;;;;;2.28;1.10;;;;;;;13.18;79.67;98589.22;5024965;28;20362;-68
2022/10/02 03:47:20;;;;;;;1.35;1.25;;;;;;;13.15;79.96;98591.97;5024860;28;20086;-69
2022/10/02 03:49:46;;;;;;;1.50;1.40;;;;;;;13.12;79.48;98591.22;5024756;28;20092;-69
2022/10/02 03:52:17;;;;;;;1.42;1.33;;;;;;;13.13;79.12;98592.06;5024075;28;20080;-67
2022/10/02 03:54:44;;;;;;;2.85;1.40;;;;;;;13.15;79.01;98592.81;5005025;28;20203;-67
2022/10/02 03:57:18;;;;;;;2.45;2.25;;;;;;;13.22;79.87;98588.16;5020295;28;20088;-69
2022/10/02 03:59:54;;;;;;;2.45;1.40;;;;;;;13.19;79.09;98585.72;5024518;28;20030;-68
2022/10/02 04:02:38;;;;;;;1.20;1.10;;;;;;;13.17;79.62;98574.53;5024659;28;20034;-68
2022/10/02 04:05:32;;;;;;;2.35;1.33;;;;;;;13.18;78.43;98584.88;5024553;28;20034;-67
2022/10/02 04:08:10;;;;;;;1.27;1.08;;;;;;;13.15;78.47;98590.22;5024132;28;20076;-67
2022/10/02 04:10:43;;;;;;;1.02;1.00;;;;;;;13.17;78.99;98571.94;5014358;28;20117;-67
2022/10/02 04:13:20;;;;;;;1.30;1.20;;;;;;;13.23;79.18;98590.69;5023591;28;20029;-67
2022/10/02 04:16:11;;;;;;;1.60;1.08;;;;;;;13.27;78.85;98593.97;5012509;28;20101;-66
2022/10/02 04:18:56;;;;;;;1.23;1.00;;;;;;;13.22;79.21;98595.97;5024172;28;20084;-66
2022/10/02 04:21:34;;;;;;;2.20;1.10;;;;;;;13.26;79.28;98600.09;5021662;28;20245;-67
2022/10/02 04:24:28;;;;;;;1.20;1.10;;;;;;;13.17;79.28;98596.19;5023909;28;20036;-67
2022/10/02 04:26:59;;;;;;;1.48;1.17;;;;;;;13.22;78.90;98608.97;5024155;28;20033;-66
2022/10/02 04:29:31;;;;;;;1.10;0.90;;;;;;;13.03;76.42;98611.63;5015075;28;20037;-66
2022/10/02 04:32:09;;;;;;;1.98;0.80;;;;;;;13.04;76.14;98613.28;5023501;28;20045;-67
2022/10/02 04:34:35;;;;;;;0.70;0.70;;;;;;;12.91;75.13;98611.31;5024072;28;20113;-65
2022/10/02 04:37:37;;;;;;;3.03;0.73;;;;;;;12.85;74.70;98624.59;5024099;28;20028;-66
2022/10/02 04:40:31;;;;;;;2.25;0.70;;;;;;;12.90;74.15;98601.00;5004114;28;20250;-66
2022/10/02 04:43:06;;;;;;;1.05;0.45;;;;;;;13.01;74.25;98618.66;5003105;28;20034;-66
2022/10/02 04:45:44;;;;;;;0.73;0.60;;;;;;;12.83;74.06;98621.22;5022381;28;20317;-67
2022/10/02 04:48:37;;;;;;;0.77;0.50;;;;;;;12.75;72.13;98626.81;5023700;28;20053;-66
2022/10/02 04:51:55;;;;;;;0.43;0.43;;;;;;;12.70;71.64;98631.38;5023813;28;20056;-66
2022/10/02 04:54:44;;;;;;;0.63;0.63;;;;;;;12.72;74.09;98631.28;5023734;28;20052;-66
2022/10/02 04:57:33;;;;;;;1.25;0.52;;;;;;;12.58;72.03;98611.16;5023557;28;20045;-65
2022/10/02 05:00:09;;;;;;;0.70;0.50;;;;;;;12.75;73.07;98629.41;5023323;28;20043;-67
2022/10/02 05:02:58;;;;;;;0.90;0.70;;;;;;;12.73;71.82;98628.63;5023362;28;20026;-67
2022/10/02 05:06:13;;;;;;;1.65;0.50;;;;;;;12.70;72.70;98626.16;5023269;28;20033;-66
2022/10/02 05:08:53;;;;;;;0.60;0.50;;;;;;;12.68;72.48;98612.41;5011891;28;20051;-67
2022/10/02 05:11:25;;;;;;;1.23;0.60;;;;;;;12.70;71.66;98625.34;5035713;28;20037;-67
2022/10/02 05:14:09;;;;;;;0.50;0.50;;;;;;;12.77;72.37;98614.56;5023043;28;20025;-66
2022/10/02 05:17:11;;;;;;;1.33;0.52;;;;;;;12.69;71.58;98598.50;5021962;28;20226;-67
2022/10/02 05:19:49;;;;;;;1.52;0.70;;;;;;;12.73;71.73;98607.84;5023394;28;20049;-67
2022/10/02 05:22:30;;;;;;;1.65;0.50;;;;;;;12.72;73.17;98606.16;5022811;28;20065;-67
2022/10/02 05:25:25;;;;;;;0.68;0.40;;;;;;;12.56;73.33;98616.41;5003829;28;20253;-67
2022/10/02 05:27:56;;;;;;;0.50;0.50;;;;;;;12.57;73.21;98612.09;5009269;28;20034;-67
2022/10/02 05:30:21;;;;;;;0.60;0.60;;;;;;;12.53;72.08;98616.56;5023401;28;20105;-66
2022/10/02 05:33:22;;;;;;;1.67;0.60;;;;;;;12.68;73.54;98619.34;5023004;28;20064;-67
2022/10/02 05:36:15;;;;;;;0.50;0.50;;;;;;;12.55;71.64;98624.28;4962670;29;20352;-67
2022/10/02 05:38:59;;;;;;;0.80;0.60;;;;;;;12.44;71.75;98619.59;5021804;28;20038;-67
2022/10/02 05:41:27;;;;;;;1.20;0.60;;;;;;;12.45;71.80;98617.84;5023068;28;20124;-66
2022/10/02 05:44:03;;;;;;;0.82;0.57;;;;;;;12.44;73.55;98632.56;5022384;28;20076;-65
2022/10/02 05:46:40;;;;;;;0.50;0.50;;;;;;;12.36;72.84;98613.94;5022982;28;20084;-66
2022/10/02 05:49:15;;;;;;;1.88;0.70;;;;;;;12.43;73.47;98636.94;5023150;28;20049;-66
2022/10/02 05:51:54;;;;;;;0.90;0.60;;;;;;;12.39;73.42;98616.38;5021803;28;20217;-67
2022/10/02 05:54:45;;;;;;;1.13;0.70;;;;;;;12.33;72.73;98621.88;5021978;28;20038;-66
2022/10/02 05:57:33;;;;;;;0.50;0.50;;;;;;;12.33;73.12;98621.88;5022928;28;20076;-67
2022/10/02 06:00:16;;;;;;;1.55;0.75;;;;;;;12.28;72.81;98616.84;5022658;28;20106;-66
2022/10/02 06:03:03;;;;;;;;;;;;;;;12.34;72.61;98626.97;5023450;28;20037;-66
2022/10/02 06:05:40;;;;;;;1.38;0.70;;;;;;;12.33;73.74;98622.69;5022945;28;19968;-66
2022/10/02 06:08:11;;;;;;;2.05;0.60;;;;;;;12.33;73.80;98625.28;5027306;28;20030;-66
2022/10/02 06:10:45;;;;;;;0.45;0.43;;;;;;;12.32;73.54;98630.56;5030031;28;20026;-66
2022/10/02 06:13:24;;;;;;;1.00;0.70;;;;;;;12.20;73.54;98622.41;5023205;28;20317;-67
2022/10/02 06:15:53;;;;;;;1.58;0.70;;;;;;;12.19;74.45;98625.06;5011749;28;20029;-66
2022/10/02 06:18:22;;;;;;;1.10;0.63;;;;;;;12.23;74.77;98608.47;5022678;28;20029;-66
2022/10/02 06:21:00;;;;;;;0.65;0.50;;;;;;;12.39;74.30;98635.38;5021587;28;20045;-66
2022/10/02 06:23:39;;;;;;;1.02;0.70;;;;;;;12.22;74.75;98641.34;5022771;28;20306;-66
2022/10/02 06:26:44;;;;;;;0.80;0.70;;;;;;;12.18;74.13;98637.19;5022522;28;20329;-67
2022/10/02 06:29:28;;;;;;;1.73;0.82;;;;;;;12.24;75.08;98643.88;5022408;28;20049;-67
2022/10/02 06:32:29;;;;;;;1.33;0.70;;;;;;;12.11;75.67;98630.59;5022560;28;20045;-66
2022/10/02 06:34:55;;;;;;;2.10;0.57;;;;;;;12.23;74.69;98655.19;5025895;28;20041;-67
2022/10/02 06:37:55;;;;;;;2.28;0.70;;;;;;;12.18;75.81;98646.75;5025796;28;20218;-66
2022/10/02 06:40:36;;;;;;;1.48;0.85;;;;;;;12.30;75.47;98663.50;5006574;28;20037;-66
2022/10/02 06:43:09;;;;;;;0.60;0.60;;;;;;;12.23;75.83;98663.81;5006494;28;20302;-67
2022/10/02 06:46:00;;;;;;;3.47;0.70;;;;;;;12.28;75.54;98660.16;5023820;28;20107;-66
2022/10/02 06:49:03;;;;;;;0.68;0.68;;;;;;;12.36;75.69;98668.44;5025709;28;20116;-66
2022/10/02 06:52:14;;;;;;;0.80;0.70;;;;;;;12.36;74.76;98669.28;5024200;28;20128;-67
2022/10/02 06:54:59;;;;;;;0.70;0.70;;;;;;;12.37;76.27;98665.78;5025767;28;20100;-68
2022/10/02 06:57:41;;;;;;;2.85;0.70;;;;;;;12.42;76.37;98673.34;5025651;28;20026;-68
2022/10/02 07:00:15;;;;;;;2.28;1.30;;;;;;;12.35;75.49;98656.38;5025539;28;20041;-68
2022/10/02 07:03:21;;;;;;;1.42;0.80;;;;;;;12.32;75.42;98659.13;5025535;28;20044;-68
2022/10/02 07:06:14;;;;;;;1.83;0.80;;;;;;;12.32;75.68;98662.53;5005284;28;20404;-68
2022/10/02 07:08:55;;;;;;;0.60;0.60;;;;;;;12.22;75.37;98661.28;5035423;28;20064;-68
2022/10/02 07:11:24;;;;;;;0.50;0.50;;;;;;;12.31;75.48;98654.81;5036924;28;20029;-67
2022/10/02 07:14:11;;;;;;;1.70;0.65;;;;;;;12.36;75.50;98656.31;5023903;28;20033;-67
2022/10/02 07:16:46;;;;;;;0.57;0.52;;;;;;;12.42;75.29;98665.56;5025039;28;20049;-67
2022/10/02 07:19:15;;;;;;;1.27;1.17;;;;;;;12.37;76.19;98677.91;5025575;28;20022;-67
2022/10/02 07:21:54;;;;;;;2.50;0.80;;;;;;;12.34;75.50;98652.09;5025004;28;20392;-67
2022/10/02 07:24:39;;;;;;;1.83;0.70;;;;;;;12.37;74.69;98672.72;5020836;28;20340;-68
2022/10/02 07:27:26;;;;;;;1.00;0.52;;;;;;;12.28;73.53;98653.19;5023942;28;20040;-68
2022/10/02 07:30:24;;;;;;;2.25;0.60;;;;;;;12.55;73.65;98661.47;5024118;28;20148;-67
2022/10/02 07:33:20;;;;;;;0.82;0.65;;;;;;;12.48;72.93;98664.44;5002622;28;20053;-68
2022/10/02 07:36:09;;;;;;;0.60;0.60;;;;;;;12.60;74.01;98661.28;5020736;28;20302;-67
2022/10/02 07:38:46;;;;;;;0.50;0.50;;;;;;;12.63;73.55;98655.94;5013386;28;20237;-67
2022/10/02 07:41:24;;;;;;;0.50;0.50;;;;;;;12.66;72.08;98655.81;5025023;28;20123;-67
2022/10/02 07:43:56;;;;;;;2.78;1.38;;;;;;;12.86;74.52;98654.03;5023092;28;20216;-68
2022/10/02 07:46:25;;;;;;;1.17;0.60;;;;;;;13.00;73.05;98655.94;5025041;28;20044;-68
2022/10/02 07:49:18;;;;;;;2.83;0.65;;;;;;;13.05;72.41;98664.38;5024263;28;20030;-68
2022/10/02 07:51:53;;;;;;;0.70;0.55;;;;;;;12.92;70.93;98658.91;5024755;28;20033;-68
2022/10/02 07:54:44;;;;;;;1.48;0.60;;;;;;;13.20;71.28;98668.00;5024628;28;20030;-67
2022/10/02 07:57:26;;;;;;;1.63;0.50;;;;;;;13.26;71.13;98667.69;5023495;28;20045;-67
2022/10/02 08:00:06;;;;;;;2.15;0.80;;;;;;;13.01;71.09;98652.44;5010413;28;20030;-66
2022/10/02 08:02:44;;;;;;;0.80;0.60;;;;;;;13.22;71.68;98653.16;5018884;28;20053;-66
2022/10/02 08:05:18;;;;;;;1.65;0.70;;;;;;;13.21;69.61;98646.25;5019222;28;20042;-67
2022/10/02 08:07:49;;;;;;;0.82;0.55;;;;;;;13.41;70.15;98656.56;5016877;28;20025;-67
2022/10/02 08:10:19;;;;;;;2.42;0.95;;;;;;;13.39;70.95;98654.97;5021569;28;20222;-66
2022/10/02 08:13:06;;;;;;;0.77;0.68;;;;;;;13.32;70.53;98625.78;5016325;28;20072;-67
2022/10/02 08:15:34;;;;;;;2.65;0.65;;;;;;;13.44;69.73;98645.19;5024062;28;20032;-67
2022/10/02 08:18:09;;;;;;;1.40;0.80;;;;;;;13.57;70.29;98638.44;5018135;28;20025;-68
2022/10/02 08:20:45;;;;;;;2.08;0.93;;;;;;;13.67;69.71;98658.75;5019319;28;20325;-67
2022/10/02 08:23:38;;;;;;;0.73;0.70;;;;;;;13.58;68.55;98666.13;5020743;28;20026;-67
2022/10/02 08:26:23;;;;;;;1.02;0.90;;;;;;;13.57;67.40;98651.44;5023668;28;20057;-67
2022/10/02 08:29:04;;;;;;;2.13;0.77;;;;;;;13.56;68.92;98674.94;5022702;28;20030;-67
2022/10/02 08:31:30;;;;;;;1.95;0.95;;;;;;;13.69;69.56;98664.75;5019990;28;20044;-67
2022/10/02 08:34:10;;;;;;;1.58;0.90;;;;;;;13.70;67.48;98663.84;5016326;28;20306;-67
2022/10/02 08:37:13;;;;;;;1.17;0.95;;;;;;;13.41;68.02;98664.38;5021519;28;20026;-68
2022/10/02 08:39:51;;;;;;;1.30;0.90;;;;;;;13.36;69.44;98668.94;5020387;28;20034;-67
2022/10/02 08:42:19;;;;;;;3.65;1.23;;;;;;;13.54;69.01;98674.16;5018762;28;20084;-68
2022/10/02 08:45:16;;;;;;;1.80;0.90;;;;;;;13.55;69.20;98673.25;5015321;28;20030;-68
2022/10/02 08:48:22;;;;;;;2.67;1.00;;;;;;;13.59;68.34;98678.19;5017671;28;20038;-68
2022/10/02 08:51:06;;;;;;;3.47;1.00;;;;;;;13.60;69.84;98679.91;5020610;28;20049;-68
2022/10/02 08:54:14;;;;;;;2.28;1.20;;;;;;;13.67;70.28;98679.56;5019331;28;20044;-67
2022/10/02 08:56:52;;;;;;;1.58;1.00;;;;;;;13.67;68.49;98674.38;5016395;28;20040;-67
2022/10/02 08:59:49;;;;;;;1.15;0.90;;;;;;;13.75;69.09;98675.69;5015575;28;20084;-67
2022/10/02 09:02:33;;;;;;;2.45;1.10;;;;;;;13.79;68.34;98674.59;5021312;28;20083;-67
2022/10/02 09:05:26;;;;;;;2.75;1.00;;;;;;;13.54;68.36;98674.16;5014899;28;20042;-67
2022/10/02 09:08:13;;;;;;;2.28;1.00;;;;;;;13.82;69.17;98673.59;5023313;28;20053;-67
2022/10/02 09:11:10;;;;;;;2.40;1.40;;;;;;;13.77;69.34;98683.41;5023350;28;20095;-67
2022/10/02 09:14:01;;;;;;;3.15;1.20;;;;;;;13.76;69.06;98676.53;5023212;28;20038;-67
2022/10/02 09:16:48;;;;;;;1.63;1.02;;;;;;;13.47;69.61;98637.22;5021686;28;20382;-67
2022/10/02 09:19:56;;;;;;;4.05;1.25;;;;;;;13.79;69.74;98673.75;5003617;28;20226;-68
2022/10/02 09:22:46;;;;;;;5.03;2.13;;;;;;;13.99;70.16;98672.72;5004654;28;20057;-67
2022/10/02 09:25:44;;;;;;;3.15;1.42;;;;;;;14.01;70.51;98670.91;5006397;28;20041;-68
2022/10/02 09:28:48;;;;;;;2.55;1.48;;;;;;;13.89;69.79;98680.16;5021766;28;20291;-66
2022/10/02 09:31:39;;;;;;;2.25;1.20;;;;;;;13.95;70.08;98685.06;5023269;28;20049;-67
2022/10/02 09:34:26;;;;;;;3.50;1.40;;;;;;;13.90;70.70;98681.84;5003266;28;20393;-67
2022/10/02 09:37:27;;;;;;;3.17;1.52;;;;;;;13.90;70.58;98681.03;5022879;28;20026;-68
2022/10/02 09:39:52;;;;;;;2.13;1.25;;;;;;;13.73;70.17;98674.06;5003356;28;20042;-71
2022/10/02 09:42:24;;;;;;;2.67;1.33;;;;;;;13.75;70.46;98677.44;5022782;28;20089;-68
2022/10/02 09:45:17;;;;;;;4.07;1.38;;;;;;;13.83;69.90;98670.09;5023130;28;20076;-68
2022/10/02 09:48:08;;;;;;;3.53;1.40;;;;;;;13.75;70.06;98674.81;5012153;28;20036;-68
2022/10/02 09:50:43;;;;;;;1.90;1.25;;;;;;;13.61;69.76;98675.53;5022085;28;20057;-68
2022/10/02 09:53:14;;;;;;;4.60;1.50;;;;;;;13.45;70.40;98684.13;5016975;28;20030;-68
2022/10/02 09:56:01;;;;;;;2.88;1.20;;;;;;;13.63;70.91;98684.09;5022782;28;20038;-67
2022/10/02 09:58:55;;;;;;;2.05;1.10;;;;;;;13.62;69.65;98688.47;5021571;28;20064;-68
2022/10/02 10:01:27;;;;;;;2.08;1.10;;;;;;;13.40;70.68;98687.84;5003395;28;20037;-68
2022/10/02 10:04:08;;;;;;;1.95;1.30;;;;;;;13.57;70.13;98685.25;5020827;28;20025;-68
2022/10/02 10:07:06;;;;;;;2.63;1.50;;;;;;;13.41;70.86;98687.78;5004255;28;20026;-67
2022/10/02 10:09:56;;;;;;;3.22;1.35;;;;;;;13.05;72.02;98691.19;5023531;28;20058;-68
2022/10/02 10:12:33;;;;;;;3.38;1.15;;;;;;;13.21;71.45;98693.94;5022869;28;20278;-67
2022/10/02 10:15:29;;;;;;;1.27;1.17;;;;;;;13.08;71.54;98672.03;5022566;28;20049;-68
2022/10/02 10:18:03;;;;;;;1.67;1.33;;;;;;;13.15;71.40;98691.59;5025657;28;20022;-67
2022/10/02 10:20:53;;;;;;;2.80;1.27;;;;;;;13.15;71.06;98683.81;5024680;28;20034;-69
2022/10/02 10:23:39;;;;;;;1.80;1.33;;;;;;;13.04;71.03;98673.06;5021463;28;20056;-68
2022/10/02 10:26:40;;;;;;;1.75;1.13;;;;;;;12.93;71.90;98682.22;5025253;28;20149;-68
2022/10/02 10:29:53;;;;;;;2.10;1.10;;;;;;;13.09;70.99;98676.31;5018539;28;20085;-68
2022/10/02 10:32:37;;;;;;;2.08;1.23;;;;;;;13.21;71.36;98669.66;4955629;29;20287;-68
2022/10/02 10:35:03;;;;;;;1.65;1.10;;;;;;;13.34;70.56;98677.72;4957836;29;20350;-68
2022/10/02 10:41:27;;;;;;;3.97;1.27;;;;;;;13.22;69.98;98680.00;5008483;28;20026;-68
2022/10/02 10:44:23;;;;;;;1.30;1.20;;;;;;;13.23;69.67;98673.88;5015291;28;20049;-67
2022/10/02 10:47:05;;;;;;;2.83;1.27;;;;;;;13.42;69.59;98673.00;5025537;28;20341;-67
2022/10/02 10:50:09;;;;;;;2.50;1.25;;;;;;;13.45;70.61;98672.84;5025989;28;20036;-66
2022/10/02 10:52:46;;;;;;;1.63;1.23;;;;;;;13.35;70.38;98671.63;4989079;28;20038;-68
2022/10/02 10:55:50;;;;;;;3.03;1.40;;;;;;;13.59;69.53;98678.19;5006274;28;20033;-66
2022/10/02 10:58:48;;;;;;;1.10;1.00;;;;;;;13.56;69.26;98667.97;5006021;28;20038;-67
2022/10/02 11:01:18;;;;;;;2.33;1.20;;;;;;;13.63;68.47;98674.53;5006198;28;20194;-68
2022/10/02 11:04:02;;;;;;;5.75;1.52;;;;;;;13.86;68.61;98677.72;5022431;28;20029;-68
2022/10/02 11:06:36;;;;;;;2.28;1.10;;;;;;;14.02;68.97;98672.56;5039949;28;20033;-67
2022/10/02 11:09:25;;;;;;;4.40;1.75;;;;;;;14.09;69.46;98675.69;5034441;28;20034;-70
2022/10/02 11:12:15;;;;;;;1.73;1.30;;;;;;;14.15;69.73;98681.44;5025298;28;20046;-68
2022/10/02 11:15:05;;;;;;;2.65;1.33;;;;;;;14.23;68.88;98672.38;5025603;28;20380;-70
2022/10/02 11:17:39;;;;;;;4.20;1.40;;;;;;;14.07;66.61;98677.56;5016767;28;20022;-68
2022/10/02 11:20:35;;;;;;;2.00;1.17;;;;;;;13.93;68.21;98670.44;5015527;28;20057;-68
2022/10/02 11:23:10;;;;;;;1.40;1.05;;;;;;;14.06;68.13;98681.06;5016178;28;20041;-69
2022/10/02 11:25:57;;;;;;;3.55;1.30;;;;;;;14.14;68.76;98673.72;5017375;28;20041;-67
2022/10/02 11:29:00;;;;;;;2.85;1.30;;;;;;;14.10;66.72;98673.00;5019074;28;20101;-67
2022/10/02 11:32:00;;;;;;;2.72;1.30;;;;;;;14.16;66.74;98664.03;5005476;28;20050;-68
2022/10/02 11:34:25;;;;;;;3.65;1.40;;;;;;;14.16;67.73;98656.22;5005883;28;20046;-68
2022/10/02 11:37:23;;;;;;;2.22;1.30;;;;;;;14.24;67.25;98664.47;5022603;28;20056;-68
2022/10/02 11:39:57;;;;;;;4.20;1.15;;;;;;;14.31;67.05;98660.63;5021843;28;20071;-67
2022/10/02 11:42:35;;;;;;;4.32;1.30;;;;;;;14.29;68.11;98662.47;5024688;28;20026;-68
2022/10/02 11:45:22;;;;;;;4.80;1.30;;;;;;;14.32;69.13;98659.72;5024675;28;20080;-69
2022/10/02 11:48:07;;;;;;;2.53;1.40;;;;;;;14.18;67.08;98659.59;5023184;28;20037;-68
2022/10/02 11:51:09;;;;;;;1.20;1.10;;;;;;;14.13;67.00;98662.44;5024595;28;20034;-69
2022/10/02 11:53:56;;;;;;;2.28;1.40;;;;;;;14.26;67.16;98652.19;4999726;28;20376;-68
2022/10/02 11:57:00;;;;;;;1.63;1.25;;;;;;;14.24;66.89;98643.66;5036821;28;20088;-68
2022/10/02 11:59:50;;;;;;;1.27;1.02;;;;;;;14.25;67.19;98650.53;5024464;28;20195;-67
2022/10/02 12:02:41;;;;;;;1.65;1.27;;;;;;;14.21;67.57;98646.41;5022875;28;20061;-68
2022/10/02 12:05:22;;;;;;;2.42;1.50;;;;;;;14.20;67.43;98657.75;5027444;28;20042;-67
2022/10/02 12:08:03;;;;;;;2.90;2.30;;;;;;;14.15;68.36;98659.75;5043791;28;20120;-68
2022/10/02 12:10:40;;;;;;;2.67;1.38;;;;;;;14.11;67.21;98653.03;5024483;28;20061;-67
2022/10/02 12:13:15;;;;;;;3.40;1.55;;;;;;;13.95;66.74;98647.78;5024401;28;20317;-68
2022/10/02 12:16:06;;;;;;;3.95;1.77;;;;;;;14.02;67.52;98640.50;5024208;28;20040;-68
2022/10/02 12:18:50;;;;;;;2.67;1.50;;;;;;;13.95;67.06;98650.38;5024037;28;20028;-68
2022/10/02 12:27:11;;;;;;;2.10;1.20;;;;;;;13.94;67.29;98628.72;5023848;28;20033;-69
2022/10/02 12:29:49;;;;;;;1.45;1.20;;;;;;;13.76;67.28;98633.13;5023645;28;20093;-70
2022/10/02 12:32:42;;;;;;;2.42;1.45;;;;;;;13.84;66.06;98637.06;5024255;28;20057;-70
2022/10/02 12:35:32;;;;;;;1.33;1.20;;;;;;;14.02;66.52;98632.69;5022715;28;20207;-69
2022/10/02 12:38:34;;;;;;;2.33;1.50;;;;;;;13.96;66.66;98634.69;5023623;28;20041;-69
2022/10/02 12:41:21;;;;;;;3.38;1.75;;;;;;;14.04;66.75;98620.41;5023928;28;20034;-68
2022/10/02 12:43:54;;;;;;;1.67;1.45;;;;;;;14.12;67.44;98613.91;5022749;28;20311;-69
2022/10/02 12:46:20;;;;;;;2.65;1.65;;;;;;;14.08;67.82;98601.09;5013650;28;20032;-68
2022/10/02 12:49:13;;;;;;;2.42;1.23;;;;;;;14.10;66.54;98604.47;5022611;28;20018;-69
2022/10/02 12:51:45;;;;;;;1.83;1.40;;;;;;;14.13;68.31;98609.53;5020947;28;20034;-66